sensor_id;sensor_type;location;lat;lon;timestamp;pressure;altitude;pressure_sealevel;temperature;humidity
61359;BME280;47228;46.762;23.598;2022-10-18T00:01:04;98800.27;;;7.23;82.58
61359;BME280;47228;46.762;23.598;2022-10-18T00:03:38;98798.16;;;7.21;82.70
61359;BME280;47228;46.762;23.598;2022-10-18T00:06:07;98795.88;;;7.23;82.68
61359;BME280;47228;46.762;23.598;2022-10-18T00:08:37;98795.46;;;7.22;82.56
61359;BME280;47228;46.762;23.598;2022-10-18T00:11:06;98799.55;;;7.18;82.51
61359;BME280;47228;46.762;23.598;2022-10-18T00:13:35;98795.20;;;7.14;82.40
61359;BME280;47228;46.762;23.598;2022-10-18T00:16:05;98795.02;;;7.11;82.48
61359;BME280;47228;46.762;23.598;2022-10-18T00:18:36;98796.38;;;7.10;82.52
61359;BME280;47228;46.762;23.598;2022-10-18T00:21:14;98796.66;;;7.07;82.26
61359;BME280;47228;46.762;23.598;2022-10-18T00:23:43;98797.06;;;7.04;82.34
61359;BME280;47228;46.762;23.598;2022-10-18T00:26:20;98793.59;;;7.02;82.61
61359;BME280;47228;46.762;23.598;2022-10-18T00:28:56;98794.66;;;7.00;82.57
61359;BME280;47228;46.762;23.598;2022-10-18T00:31:29;98792.61;;;6.98;82.50
61359;BME280;47228;46.762;23.598;2022-10-18T00:34:01;98792.23;;;6.96;82.55
61359;BME280;47228;46.762;23.598;2022-10-18T00:36:31;98791.95;;;6.95;82.74
61359;BME280;47228;46.762;23.598;2022-10-18T00:39:02;98787.60;;;6.96;82.90
61359;BME280;47228;46.762;23.598;2022-10-18T00:41:32;98786.55;;;6.96;82.88
61359;BME280;47228;46.762;23.598;2022-10-18T00:44:05;98786.77;;;6.96;83.10
61359;BME280;47228;46.762;23.598;2022-10-18T00:46:35;98781.17;;;6.96;82.99
61359;BME280;47228;46.762;23.598;2022-10-18T00:49:15;98778.94;;;6.95;82.77
61359;BME280;47228;46.762;23.598;2022-10-18T00:51:50;98780.56;;;6.93;82.61
61359;BME280;47228;46.762;23.598;2022-10-18T00:54:20;98781.27;;;6.89;82.96
61359;BME280;47228;46.762;23.598;2022-10-18T00:56:48;98784.95;;;6.87;82.89
61359;BME280;47228;46.762;23.598;2022-10-18T00:59:17;98783.23;;;6.85;82.53
61359;BME280;47228;46.762;23.598;2022-10-18T01:01:45;98782.58;;;6.80;82.81
61359;BME280;47228;46.762;23.598;2022-10-18T01:04:14;98780.55;;;6.76;82.66
61359;BME280;47228;46.762;23.598;2022-10-18T01:15:56;98764.52;;;6.56;83.13
61359;BME280;47228;46.762;23.598;2022-10-18T01:32:43;98754.23;;;6.42;83.38
61359;BME280;47228;46.762;23.598;2022-10-18T01:35:26;98753.44;;;6.41;83.53
61359;BME280;47228;46.762;23.598;2022-10-18T01:37:59;98750.72;;;6.38;83.48
61359;BME280;47228;46.762;23.598;2022-10-18T01:40:28;98747.87;;;6.35;83.64
61359;BME280;47228;46.762;23.598;2022-10-18T01:42:56;98743.51;;;6.32;83.97
61359;BME280;47228;46.762;23.598;2022-10-18T01:45:24;98739.02;;;6.31;83.92
61359;BME280;47228;46.762;23.598;2022-10-18T01:47:53;98737.97;;;6.29;83.99
61359;BME280;47228;46.762;23.598;2022-10-18T01:50:35;98734.69;;;6.27;83.84
61359;BME280;47228;46.762;23.598;2022-10-18T01:53:03;98734.08;;;6.26;83.92
61359;BME280;47228;46.762;23.598;2022-10-18T01:55:37;98733.73;;;6.25;84.10
61359;BME280;47228;46.762;23.598;2022-10-18T01:58:21;98732.71;;;6.25;84.01
61359;BME280;47228;46.762;23.598;2022-10-18T02:01:02;98730.84;;;6.23;83.97
61359;BME280;47228;46.762;23.598;2022-10-18T02:03:33;98727.73;;;6.20;84.01
61359;BME280;47228;46.762;23.598;2022-10-18T02:06:10;98727.34;;;6.18;83.99
61359;BME280;47228;46.762;23.598;2022-10-18T02:08:48;98726.48;;;6.18;83.95
61359;BME280;47228;46.762;23.598;2022-10-18T02:11:17;98724.15;;;6.19;83.97
61359;BME280;47228;46.762;23.598;2022-10-18T02:13:48;98721.91;;;6.18;83.88
61359;BME280;47228;46.762;23.598;2022-10-18T02:16:21;98720.65;;;6.16;84.17
61359;BME280;47228;46.762;23.598;2022-10-18T02:18:55;98720.66;;;6.15;83.99
61359;BME280;47228;46.762;23.598;2022-10-18T02:21:24;98715.65;;;6.12;84.11
61359;BME280;47228;46.762;23.598;2022-10-18T02:23:56;98711.83;;;6.09;83.96
61359;BME280;47228;46.762;23.598;2022-10-18T02:26:25;98710.19;;;6.05;83.92
61359;BME280;47228;46.762;23.598;2022-10-18T02:28:54;98714.33;;;6.05;84.23
61359;BME280;47228;46.762;23.598;2022-10-18T02:31:31;98712.41;;;6.04;84.10
61359;BME280;47228;46.762;23.598;2022-10-18T02:34:26;98712.30;;;6.02;83.75
61359;BME280;47228;46.762;23.598;2022-10-18T02:36:58;98711.02;;;5.98;84.15
61359;BME280;47228;46.762;23.598;2022-10-18T02:39:29;98707.61;;;5.97;84.24
61359;BME280;47228;46.762;23.598;2022-10-18T02:41:58;98708.95;;;5.96;84.30
61359;BME280;47228;46.762;23.598;2022-10-18T02:44:26;98708.65;;;5.93;84.12
61359;BME280;47228;46.762;23.598;2022-10-18T02:46:54;98714.39;;;5.92;84.28
61359;BME280;47228;46.762;23.598;2022-10-18T02:49:22;98711.64;;;5.91;84.80
61359;BME280;47228;46.762;23.598;2022-10-18T02:51:50;98710.00;;;5.92;84.32
61359;BME280;47228;46.762;23.598;2022-10-18T02:54:18;98711.27;;;5.90;84.39
61359;BME280;47228;46.762;23.598;2022-10-18T02:56:45;98716.67;;;5.86;84.16
61359;BME280;47228;46.762;23.598;2022-10-18T02:59:13;98716.08;;;5.83;84.24
61359;BME280;47228;46.762;23.598;2022-10-18T03:01:41;98717.79;;;5.81;84.46
61359;BME280;47228;46.762;23.598;2022-10-18T03:04:09;98719.45;;;5.80;84.50
61359;BME280;47228;46.762;23.598;2022-10-18T03:06:37;98716.56;;;5.77;84.48
61359;BME280;47228;46.762;23.598;2022-10-18T03:09:05;98719.41;;;5.75;84.29
61359;BME280;47228;46.762;23.598;2022-10-18T03:11:33;98715.08;;;5.72;84.50
61359;BME280;47228;46.762;23.598;2022-10-18T03:14:01;98710.81;;;5.71;84.42
61359;BME280;47228;46.762;23.598;2022-10-18T03:16:29;98709.48;;;5.70;84.55
61359;BME280;47228;46.762;23.598;2022-10-18T03:18:56;98709.26;;;5.69;84.44
61359;BME280;47228;46.762;23.598;2022-10-18T03:21:24;98708.79;;;5.68;84.50
61359;BME280;47228;46.762;23.598;2022-10-18T03:23:53;98707.18;;;5.64;84.57
61359;BME280;47228;46.762;23.598;2022-10-18T03:26:20;98704.82;;;5.61;84.72
61359;BME280;47228;46.762;23.598;2022-10-18T03:28:48;98703.38;;;5.62;85.09
61359;BME280;47228;46.762;23.598;2022-10-18T03:31:16;98701.30;;;5.64;85.17
61359;BME280;47228;46.762;23.598;2022-10-18T03:33:44;98701.34;;;5.65;85.02
61359;BME280;47228;46.762;23.598;2022-10-18T03:36:13;98697.64;;;5.65;84.91
61359;BME280;47228;46.762;23.598;2022-10-18T03:38:41;98695.48;;;5.66;85.08
61359;BME280;47228;46.762;23.598;2022-10-18T03:41:09;98698.55;;;5.67;85.05
61359;BME280;47228;46.762;23.598;2022-10-18T03:43:37;98695.97;;;5.66;84.96
61359;BME280;47228;46.762;23.598;2022-10-18T03:46:05;98695.89;;;5.65;85.02
61359;BME280;47228;46.762;23.598;2022-10-18T03:48:32;98695.80;;;5.62;84.83
61359;BME280;47228;46.762;23.598;2022-10-18T03:51:00;98698.98;;;5.60;84.97
61359;BME280;47228;46.762;23.598;2022-10-18T03:53:28;98696.69;;;5.58;85.12
61359;BME280;47228;46.762;23.598;2022-10-18T03:55:56;98696.52;;;5.60;85.26
61359;BME280;47228;46.762;23.598;2022-10-18T03:58:24;98698.02;;;5.61;85.07
61359;BME280;47228;46.762;23.598;2022-10-18T04:00:53;98700.61;;;5.57;84.98
61359;BME280;47228;46.762;23.598;2022-10-18T04:03:22;98699.33;;;5.54;84.71
61359;BME280;47228;46.762;23.598;2022-10-18T04:05:50;98700.90;;;5.50;84.92
61359;BME280;47228;46.762;23.598;2022-10-18T04:08:18;98701.43;;;5.48;84.84
61359;BME280;47228;46.762;23.598;2022-10-18T04:10:46;98699.28;;;5.46;84.83
61359;BME280;47228;46.762;23.598;2022-10-18T04:13:13;98699.35;;;5.46;84.86
61359;BME280;47228;46.762;23.598;2022-10-18T04:15:42;98700.29;;;5.45;84.83
61359;BME280;47228;46.762;23.598;2022-10-18T04:18:10;98692.33;;;5.43;84.79
61359;BME280;47228;46.762;23.598;2022-10-18T04:20:37;98691.80;;;5.42;84.97
61359;BME280;47228;46.762;23.598;2022-10-18T04:23:05;98694.52;;;5.41;84.93
61359;BME280;47228;46.762;23.598;2022-10-18T04:25:33;98693.12;;;5.38;84.93
61359;BME280;47228;46.762;23.598;2022-10-18T04:28:01;98693.77;;;5.37;85.09
61359;BME280;47228;46.762;23.598;2022-10-18T04:30:31;98689.14;;;5.36;85.16
61359;BME280;47228;46.762;23.598;2022-10-18T04:32:59;98689.08;;;5.37;85.40
61359;BME280;47228;46.762;23.598;2022-10-18T04:35:26;98688.17;;;5.37;85.50
61359;BME280;47228;46.762;23.598;2022-10-18T04:37:55;98684.13;;;5.35;85.53
61359;BME280;47228;46.762;23.598;2022-10-18T04:40:23;98687.19;;;5.36;85.69
61359;BME280;47228;46.762;23.598;2022-10-18T04:42:50;98686.30;;;5.38;85.94
61359;BME280;47228;46.762;23.598;2022-10-18T04:45:18;98687.55;;;5.40;86.07
61359;BME280;47228;46.762;23.598;2022-10-18T04:47:46;98681.17;;;5.42;86.23
61359;BME280;47228;46.762;23.598;2022-10-18T04:50:14;98685.17;;;5.45;86.28
61359;BME280;47228;46.762;23.598;2022-10-18T04:52:42;98686.20;;;5.47;86.23
61359;BME280;47228;46.762;23.598;2022-10-18T04:55:10;98685.17;;;5.49;86.37
61359;BME280;47228;46.762;23.598;2022-10-18T04:57:37;98688.48;;;5.51;86.43
61359;BME280;47228;46.762;23.598;2022-10-18T05:00:05;98686.14;;;5.52;86.01
61359;BME280;47228;46.762;23.598;2022-10-18T05:02:33;98687.16;;;5.50;85.82
61359;BME280;47228;46.762;23.598;2022-10-18T05:05:02;98683.76;;;5.49;85.80
61359;BME280;47228;46.762;23.598;2022-10-18T05:07:30;98679.81;;;5.48;85.94
61359;BME280;47228;46.762;23.598;2022-10-18T05:09:57;98680.11;;;5.49;86.10
61359;BME280;47228;46.762;23.598;2022-10-18T05:12:25;98677.08;;;5.49;86.06
61359;BME280;47228;46.762;23.598;2022-10-18T05:14:53;98672.58;;;5.48;85.80
61359;BME280;47228;46.762;23.598;2022-10-18T05:17:23;98673.48;;;5.48;85.68
61359;BME280;47228;46.762;23.598;2022-10-18T05:19:51;98668.55;;;5.48;85.61
61359;BME280;47228;46.762;23.598;2022-10-18T05:22:19;98671.55;;;5.48;85.67
61359;BME280;47228;46.762;23.598;2022-10-18T05:24:46;98673.90;;;5.47;85.56
61359;BME280;47228;46.762;23.598;2022-10-18T05:27:15;98675.59;;;5.46;85.76
61359;BME280;47228;46.762;23.598;2022-10-18T05:29:42;98674.34;;;5.46;86.20
61359;BME280;47228;46.762;23.598;2022-10-18T05:32:10;98678.36;;;5.47;86.04
61359;BME280;47228;46.762;23.598;2022-10-18T05:34:38;98675.52;;;5.49;86.32
61359;BME280;47228;46.762;23.598;2022-10-18T05:37:06;98676.80;;;5.52;86.20
61359;BME280;47228;46.762;23.598;2022-10-18T05:39:36;98683.01;;;5.55;86.55
61359;BME280;47228;46.762;23.598;2022-10-18T05:42:04;98683.70;;;5.60;87.02
61359;BME280;47228;46.762;23.598;2022-10-18T05:44:32;98685.90;;;5.65;86.94
61359;BME280;47228;46.762;23.598;2022-10-18T05:47:00;98692.66;;;5.69;86.95
61359;BME280;47228;46.762;23.598;2022-10-18T05:49:28;98695.25;;;5.74;87.11
61359;BME280;47228;46.762;23.598;2022-10-18T05:51:56;98694.86;;;5.80;87.08
61359;BME280;47228;46.762;23.598;2022-10-18T05:54:24;98697.27;;;5.87;86.96
61359;BME280;47228;46.762;23.598;2022-10-18T05:56:52;98697.57;;;5.91;86.82
61359;BME280;47228;46.762;23.598;2022-10-18T05:59:20;98697.81;;;5.94;86.78
61359;BME280;47228;46.762;23.598;2022-10-18T06:01:48;98697.09;;;5.99;87.05
61359;BME280;47228;46.762;23.598;2022-10-18T06:04:15;98692.41;;;6.04;86.97
61359;BME280;47228;46.762;23.598;2022-10-18T06:06:44;98694.00;;;6.08;86.92
61359;BME280;47228;46.762;23.598;2022-10-18T06:09:12;98693.67;;;6.13;86.93
61359;BME280;47228;46.762;23.598;2022-10-18T06:11:40;98692.43;;;6.17;86.85
61359;BME280;47228;46.762;23.598;2022-10-18T06:14:08;98693.29;;;6.22;86.98
61359;BME280;47228;46.762;23.598;2022-10-18T06:16:36;98690.59;;;6.26;87.05
61359;BME280;47228;46.762;23.598;2022-10-18T06:19:09;98684.90;;;6.33;87.07
61359;BME280;47228;46.762;23.598;2022-10-18T06:21:36;98679.13;;;6.40;87.15
61359;BME280;47228;46.762;23.598;2022-10-18T06:24:04;98678.82;;;6.47;87.00
61359;BME280;47228;46.762;23.598;2022-10-18T06:26:33;98674.58;;;6.55;86.87
61359;BME280;47228;46.762;23.598;2022-10-18T06:29:00;98677.04;;;6.58;86.64
61359;BME280;47228;46.762;23.598;2022-10-18T06:31:28;98676.27;;;6.63;86.49
61359;BME280;47228;46.762;23.598;2022-10-18T06:33:56;98675.99;;;6.68;86.45
61359;BME280;47228;46.762;23.598;2022-10-18T06:36:25;98673.36;;;6.73;86.51
61359;BME280;47228;46.762;23.598;2022-10-18T06:38:53;98670.71;;;6.81;86.48
61359;BME280;47228;46.762;23.598;2022-10-18T06:41:22;98671.13;;;6.90;86.70
61359;BME280;47228;46.762;23.598;2022-10-18T06:43:53;98672.29;;;6.98;86.34
61359;BME280;47228;46.762;23.598;2022-10-18T06:46:24;98676.16;;;7.07;86.34
61359;BME280;47228;46.762;23.598;2022-10-18T06:48:52;98676.23;;;7.16;86.35
61359;BME280;47228;46.762;23.598;2022-10-18T06:51:20;98675.55;;;7.25;86.39
61359;BME280;47228;46.762;23.598;2022-10-18T06:53:48;98673.17;;;7.35;86.22
61359;BME280;47228;46.762;23.598;2022-10-18T06:56:36;98673.06;;;7.47;85.92
61359;BME280;47228;46.762;23.598;2022-10-18T06:59:04;98672.59;;;7.57;85.93
61359;BME280;47228;46.762;23.598;2022-10-18T07:01:32;98672.14;;;7.71;85.93
61359;BME280;47228;46.762;23.598;2022-10-18T07:04:00;98667.36;;;7.82;85.51
61359;BME280;47228;46.762;23.598;2022-10-18T07:06:28;98668.23;;;7.93;85.22
61359;BME280;47228;46.762;23.598;2022-10-18T07:08:56;98668.81;;;8.05;85.17
61359;BME280;47228;46.762;23.598;2022-10-18T07:11:25;98666.11;;;8.18;85.08
61359;BME280;47228;46.762;23.598;2022-10-18T07:13:57;98666.63;;;8.31;84.58
61359;BME280;47228;46.762;23.598;2022-10-18T07:16:27;98664.88;;;8.43;84.00
61359;BME280;47228;46.762;23.598;2022-10-18T07:18:55;98660.60;;;8.52;83.66
61359;BME280;47228;46.762;23.598;2022-10-18T07:21:24;98660.77;;;8.61;83.77
61359;BME280;47228;46.762;23.598;2022-10-18T07:23:53;98655.05;;;8.72;83.53
61359;BME280;47228;46.762;23.598;2022-10-18T07:26:29;98651.81;;;8.86;83.48
61359;BME280;47228;46.762;23.598;2022-10-18T07:29:08;98652.16;;;8.99;82.97
61359;BME280;47228;46.762;23.598;2022-10-18T07:31:37;98651.00;;;9.11;82.86
61359;BME280;47228;46.762;23.598;2022-10-18T07:34:07;98651.16;;;9.24;82.66
61359;BME280;47228;46.762;23.598;2022-10-18T07:36:35;98652.40;;;9.35;82.23
61359;BME280;47228;46.762;23.598;2022-10-18T07:39:03;98651.98;;;9.48;82.13
61359;BME280;47228;46.762;23.598;2022-10-18T07:41:32;98650.48;;;9.62;81.91
61359;BME280;47228;46.762;23.598;2022-10-18T07:44:01;98652.87;;;9.76;81.17
61359;BME280;47228;46.762;23.598;2022-10-18T07:46:30;98649.16;;;9.88;80.51
61359;BME280;47228;46.762;23.598;2022-10-18T07:48:58;98645.46;;;9.97;80.40
61359;BME280;47228;46.762;23.598;2022-10-18T07:51:26;98644.14;;;10.10;80.55
61359;BME280;47228;46.762;23.598;2022-10-18T07:53:54;98641.97;;;10.23;80.33
61359;BME280;47228;46.762;23.598;2022-10-18T07:56:22;98637.33;;;10.35;80.02
61359;BME280;47228;46.762;23.598;2022-10-18T07:58:52;98632.01;;;10.45;79.55
61359;BME280;47228;46.762;23.598;2022-10-18T08:01:21;98631.51;;;10.50;78.72
61359;BME280;47228;46.762;23.598;2022-10-18T08:03:51;98631.11;;;10.55;78.40
61359;BME280;47228;46.762;23.598;2022-10-18T08:06:20;98628.75;;;10.60;78.72
61359;BME280;47228;46.762;23.598;2022-10-18T08:08:49;98625.71;;;10.65;78.62
61359;BME280;47228;46.762;23.598;2022-10-18T08:11:20;98620.80;;;10.71;78.42
61359;BME280;47228;46.762;23.598;2022-10-18T08:13:49;98622.13;;;10.78;78.30
61359;BME280;47228;46.762;23.598;2022-10-18T08:16:21;98622.38;;;10.87;78.84
61359;BME280;47228;46.762;23.598;2022-10-18T08:18:49;98617.16;;;10.99;78.55
61359;BME280;47228;46.762;23.598;2022-10-18T08:21:19;98608.66;;;11.10;78.42
61359;BME280;47228;46.762;23.598;2022-10-18T08:23:48;98608.30;;;11.21;78.36
61359;BME280;47228;46.762;23.598;2022-10-18T08:26:19;98606.67;;;11.31;77.99
61359;BME280;47228;46.762;23.598;2022-10-18T08:28:48;98607.02;;;11.39;77.05
61359;BME280;47228;46.762;23.598;2022-10-18T08:31:30;98603.96;;;11.42;75.83
61359;BME280;47228;46.762;23.598;2022-10-18T08:33:58;98603.41;;;11.41;75.73
61359;BME280;47228;46.762;23.598;2022-10-18T08:36:26;98601.32;;;11.43;76.11
61359;BME280;47228;46.762;23.598;2022-10-18T08:38:54;98598.89;;;11.47;75.67
61359;BME280;47228;46.762;23.598;2022-10-18T08:44:27;98591.46;;;11.55;75.11
61359;BME280;47228;46.762;23.598;2022-10-18T08:47:03;98590.25;;;11.60;75.42
61359;BME280;47228;46.762;23.598;2022-10-18T08:52:32;98585.74;;;11.72;75.24
61359;BME280;47228;46.762;23.598;2022-10-18T08:55:07;98584.83;;;11.77;74.84
61359;BME280;47228;46.762;23.598;2022-10-18T08:57:36;98580.46;;;11.83;75.35
61359;BME280;47228;46.762;23.598;2022-10-18T09:00:19;98578.67;;;11.89;75.64
61359;BME280;47228;46.762;23.598;2022-10-18T09:05:55;98575.85;;;12.01;74.65
61359;BME280;47228;46.762;23.598;2022-10-18T09:13:58;98568.01;;;12.11;74.60
61359;BME280;47228;46.762;23.598;2022-10-18T09:30:39;98568.23;;;12.51;74.46
61359;BME280;47228;46.762;23.598;2022-10-18T09:33:28;98562.74;;;12.55;74.74
61359;BME280;47228;46.762;23.598;2022-10-18T09:36:01;98558.36;;;12.62;74.88
61359;BME280;47228;46.762;23.598;2022-10-18T09:38:43;98555.67;;;12.71;75.06
61359;BME280;47228;46.762;23.598;2022-10-18T09:41:23;98558.13;;;12.82;75.06
61359;BME280;47228;46.762;23.598;2022-10-18T09:44:09;98556.16;;;12.94;74.73
61359;BME280;47228;46.762;23.598;2022-10-18T09:46:42;98557.76;;;13.05;74.65
61359;BME280;47228;46.762;23.598;2022-10-18T09:49:19;98555.56;;;13.16;74.62
61359;BME280;47228;46.762;23.598;2022-10-18T09:51:50;98550.02;;;13.24;73.80
61359;BME280;47228;46.762;23.598;2022-10-18T09:54:27;98547.77;;;13.30;73.84
61359;BME280;47228;46.762;23.598;2022-10-18T09:57:08;98544.55;;;13.38;73.71
61359;BME280;47228;46.762;23.598;2022-10-18T09:59:50;98537.93;;;13.45;73.86
61359;BME280;47228;46.762;23.598;2022-10-18T10:02:21;98532.98;;;13.55;74.02
61359;BME280;47228;46.762;23.598;2022-10-18T10:04:49;98529.60;;;13.64;73.90
61359;BME280;47228;46.762;23.598;2022-10-18T10:07:33;98524.36;;;13.73;73.64
61359;BME280;47228;46.762;23.598;2022-10-18T10:10:07;98521.02;;;13.83;73.83
61359;BME280;47228;46.762;23.598;2022-10-18T10:12:40;98510.88;;;13.92;74.07
61359;BME280;47228;46.762;23.598;2022-10-18T10:15:20;98506.05;;;14.01;73.98
61359;BME280;47228;46.762;23.598;2022-10-18T10:20:36;98500.17;;;14.18;73.42
61359;BME280;47228;46.762;23.598;2022-10-18T10:23:32;98495.98;;;14.27;73.45
61359;BME280;47228;46.762;23.598;2022-10-18T10:26:26;98492.11;;;14.38;73.51
61359;BME280;47228;46.762;23.598;2022-10-18T10:28:55;98488.60;;;14.49;73.26
61359;BME280;47228;46.762;23.598;2022-10-18T10:34:01;98477.38;;;14.65;72.77
61359;BME280;47228;46.762;23.598;2022-10-18T10:36:31;98475.79;;;14.73;72.61
61359;BME280;47228;46.762;23.598;2022-10-18T10:39:10;98473.69;;;14.80;72.13
61359;BME280;47228;46.762;23.598;2022-10-18T10:41:39;98469.34;;;14.89;72.12
61359;BME280;47228;46.762;23.598;2022-10-18T10:44:19;98464.05;;;15.00;71.94
61359;BME280;47228;46.762;23.598;2022-10-18T10:46:48;98455.08;;;15.12;71.62
61359;BME280;47228;46.762;23.598;2022-10-18T10:49:22;98453.39;;;15.25;71.17
61359;BME280;47228;46.762;23.598;2022-10-18T10:52:19;98449.59;;;15.40;71.14
61359;BME280;47228;46.762;23.598;2022-10-18T10:54:56;98442.89;;;15.54;70.17
61359;BME280;47228;46.762;23.598;2022-10-18T10:57:46;98439.33;;;15.66;69.88
61359;BME280;47228;46.762;23.598;2022-10-18T11:00:37;98435.72;;;15.77;70.17
61359;BME280;47228;46.762;23.598;2022-10-18T11:05:56;98430.10;;;15.97;68.85
61359;BME280;47228;46.762;23.598;2022-10-18T11:08:37;98425.35;;;16.05;68.85
61359;BME280;47228;46.762;23.598;2022-10-18T11:11:21;98417.13;;;16.10;68.54
61359;BME280;47228;46.762;23.598;2022-10-18T11:14:44;98410.98;;;16.16;68.22
61359;BME280;47228;46.762;23.598;2022-10-18T11:17:24;98407.40;;;16.21;67.92
61359;BME280;47228;46.762;23.598;2022-10-18T11:25:42;98398.02;;;16.36;67.45
61359;BME280;47228;46.762;23.598;2022-10-18T11:28:22;98396.75;;;16.40;66.93
61359;BME280;47228;46.762;23.598;2022-10-18T11:31:13;98393.77;;;16.42;66.73
61359;BME280;47228;46.762;23.598;2022-10-18T11:36:40;98382.86;;;16.46;66.34
61359;BME280;47228;46.762;23.598;2022-10-18T11:56:24;98346.56;;;16.57;65.03
61359;BME280;47228;46.762;23.598;2022-10-18T11:59:23;98337.77;;;16.58;64.81
61359;BME280;47228;46.762;23.598;2022-10-18T12:04:35;98337.02;;;16.63;64.74
61359;BME280;47228;46.762;23.598;2022-10-18T12:07:28;98326.44;;;16.66;64.47
61359;BME280;47228;46.762;23.598;2022-10-18T12:10:00;98319.86;;;16.69;64.17
61359;BME280;47228;46.762;23.598;2022-10-18T12:12:36;98315.02;;;16.70;63.82
61359;BME280;47228;46.762;23.598;2022-10-18T12:15:20;98311.66;;;16.72;63.68
61359;BME280;47228;46.762;23.598;2022-10-18T12:17:52;98307.96;;;16.74;63.67
61359;BME280;47228;46.762;23.598;2022-10-18T12:20:32;98307.86;;;16.76;63.36
61359;BME280;47228;46.762;23.598;2022-10-18T12:23:09;98306.20;;;16.78;62.88
61359;BME280;47228;46.762;23.598;2022-10-18T12:25:42;98304.49;;;16.78;63.24
61359;BME280;47228;46.762;23.598;2022-10-18T12:31:17;98294.84;;;16.82;62.37
61359;BME280;47228;46.762;23.598;2022-10-18T12:33:54;98292.55;;;16.84;62.27
61359;BME280;47228;46.762;23.598;2022-10-18T12:36:34;98290.63;;;16.88;62.79
61359;BME280;47228;46.762;23.598;2022-10-18T12:39:11;98284.87;;;16.90;62.66
61359;BME280;47228;46.762;23.598;2022-10-18T12:41:55;98279.77;;;16.92;62.75
61359;BME280;47228;46.762;23.598;2022-10-18T12:44:31;98280.70;;;16.95;62.88
61359;BME280;47228;46.762;23.598;2022-10-18T12:47:02;98277.38;;;16.97;62.80
61359;BME280;47228;46.762;23.598;2022-10-18T12:52:19;98280.38;;;17.01;61.55
61359;BME280;47228;46.762;23.598;2022-10-18T13:16:54;98256.38;;;17.10;62.07
61359;BME280;47228;46.762;23.598;2022-10-18T13:19:37;98250.68;;;17.10;61.87
61359;BME280;47228;46.762;23.598;2022-10-18T13:22:23;98249.84;;;17.07;62.09
61359;BME280;47228;46.762;23.598;2022-10-18T13:27:58;98240.34;;;17.01;61.44
61359;BME280;47228;46.762;23.598;2022-10-18T13:30:40;98234.93;;;16.97;61.43
61359;BME280;47228;46.762;23.598;2022-10-18T13:36:02;98230.12;;;16.92;61.65
61359;BME280;47228;46.762;23.598;2022-10-18T13:41:10;98223.20;;;16.87;61.63
61359;BME280;47228;46.762;23.598;2022-10-18T13:46:23;98214.93;;;16.83;61.95
61359;BME280;47228;46.762;23.598;2022-10-18T13:48:58;98210.96;;;16.81;62.03
61359;BME280;47228;46.762;23.598;2022-10-18T13:57:31;98202.13;;;16.71;62.29
61359;BME280;47228;46.762;23.598;2022-10-18T14:02:52;98194.55;;;16.59;62.30
61359;BME280;47228;46.762;23.598;2022-10-18T14:06:05;98188.56;;;16.53;62.52
61359;BME280;47228;46.762;23.598;2022-10-18T14:08:37;98187.16;;;16.43;62.87
61359;BME280;47228;46.762;23.598;2022-10-18T14:11:19;98182.55;;;16.37;63.02
61359;BME280;47228;46.762;23.598;2022-10-18T14:19:58;98175.54;;;16.14;64.34
61359;BME280;47228;46.762;23.598;2022-10-18T14:25:29;98173.84;;;16.05;64.31
61359;BME280;47228;46.762;23.598;2022-10-18T14:28:21;98178.54;;;16.01;64.64
61359;BME280;47228;46.762;23.598;2022-10-18T14:31:11;98176.39;;;15.96;64.69
61359;BME280;47228;46.762;23.598;2022-10-18T14:33:45;98176.23;;;15.91;64.89
61359;BME280;47228;46.762;23.598;2022-10-18T14:41:25;98170.78;;;15.75;65.55
61359;BME280;47228;46.762;23.598;2022-10-18T14:46:49;98169.36;;;15.61;65.91
61359;BME280;47228;46.762;23.598;2022-10-18T14:49:19;98167.99;;;15.54;65.96
61359;BME280;47228;46.762;23.598;2022-10-18T14:51:50;98167.86;;;15.49;65.92
61359;BME280;47228;46.762;23.598;2022-10-18T14:54:27;98166.16;;;15.44;65.94
61359;BME280;47228;46.762;23.598;2022-10-18T14:57:00;98162.36;;;15.39;66.21
61359;BME280;47228;46.762;23.598;2022-10-18T14:59:32;98158.60;;;15.35;66.48
61359;BME280;47228;46.762;23.598;2022-10-18T15:02:05;98152.40;;;15.31;66.85
61359;BME280;47228;46.762;23.598;2022-10-18T15:04:38;98147.15;;;15.28;66.92
61359;BME280;47228;46.762;23.598;2022-10-18T15:07:13;98148.31;;;15.25;67.21
61359;BME280;47228;46.762;23.598;2022-10-18T15:09:42;98148.13;;;15.21;67.43
61359;BME280;47228;46.762;23.598;2022-10-18T15:12:13;98147.20;;;15.16;67.37
61359;BME280;47228;46.762;23.598;2022-10-18T15:14:42;98144.64;;;15.10;67.30
61359;BME280;47228;46.762;23.598;2022-10-18T15:17:14;98142.09;;;15.02;67.73
61359;BME280;47228;46.762;23.598;2022-10-18T15:22:26;98137.20;;;14.91;67.97
61359;BME280;47228;46.762;23.598;2022-10-18T15:25:24;98131.25;;;14.86;68.20
61359;BME280;47228;46.762;23.598;2022-10-18T15:27:58;98130.80;;;14.81;68.45
61359;BME280;47228;46.762;23.598;2022-10-18T15:30:36;98131.41;;;14.75;68.37
61359;BME280;47228;46.762;23.598;2022-10-18T15:33:06;98128.98;;;14.69;68.49
61359;BME280;47228;46.762;23.598;2022-10-18T15:35:37;98126.36;;;14.63;68.52
61359;BME280;47228;46.762;23.598;2022-10-18T15:40:51;98124.02;;;14.53;68.82
61359;BME280;47228;46.762;23.598;2022-10-18T15:48:40;98124.09;;;14.39;68.94
61359;BME280;47228;46.762;23.598;2022-10-18T15:51:45;98118.40;;;14.35;69.21
61359;BME280;47228;46.762;23.598;2022-10-18T15:54:18;98116.59;;;14.30;69.34
61359;BME280;47228;46.762;23.598;2022-10-18T15:56:46;98113.08;;;14.25;69.32
61359;BME280;47228;46.762;23.598;2022-10-18T16:01:49;98108.96;;;14.16;69.62
61359;BME280;47228;46.762;23.598;2022-10-18T16:04:23;98109.88;;;14.13;69.50
61359;BME280;47228;46.762;23.598;2022-10-18T16:06:53;98107.33;;;14.11;69.90
61359;BME280;47228;46.762;23.598;2022-10-18T16:09:25;98107.61;;;14.09;69.81